sensor_id;sensor_type;location;lat;lon;timestamp;P1;durP1;ratioP1;P2;durP2;ratioP2
55710;SDS011;41612;51.994;5.880;2023-06-19T00:01:57;7.93;;;5.65;;
55710;SDS011;41612;51.994;5.880;2023-06-19T00:04:23;8.05;;;6.05;;
55710;SDS011;41612;51.994;5.880;2023-06-19T00:06:49;8.65;;;6.55;;
55710;SDS011;41612;51.994;5.880;2023-06-19T00:09:15;6.85;;;6.10;;
55710;SDS011;41612;51.994;5.880;2023-06-19T00:11:42;7.03;;;6.07;;
55710;SDS011;41612;51.994;5.880;2023-06-19T00:14:08;8.90;;;5.70;;
55710;SDS011;41612;51.994;5.880;2023-06-19T00:16:33;8.13;;;6.45;;
55710;SDS011;41612;51.994;5.880;2023-06-19T00:18:59;8.05;;;7.22;;
55710;SDS011;41612;51.994;5.880;2023-06-19T00:21:25;7.93;;;6.75;;
55710;SDS011;41612;51.994;5.880;2023-06-19T00:23:51;6.78;;;5.90;;
55710;SDS011;41612;51.994;5.880;2023-06-19T00:26:18;9.80;;;6.38;;
55710;SDS011;41612;51.994;5.880;2023-06-19T00:28:48;8.25;;;7.20;;
55710;SDS011;41612;51.994;5.880;2023-06-19T00:31:14;6.68;;;5.78;;
55710;SDS011;41612;51.994;5.880;2023-06-19T00:33:41;7.00;;;6.10;;
55710;SDS011;41612;51.994;5.880;2023-06-19T00:36:10;8.77;;;5.50;;
55710;SDS011;41612;51.994;5.880;2023-06-19T00:38:38;6.88;;;5.43;;
55710;SDS011;41612;51.994;5.880;2023-06-19T00:41:04;7.82;;;6.53;;
55710;SDS011;41612;51.994;5.880;2023-06-19T00:43:30;8.77;;;6.72;;
55710;SDS011;41612;51.994;5.880;2023-06-19T00:45:59;7.40;;;6.70;;
55710;SDS011;41612;51.994;5.880;2023-06-19T00:48:27;10.48;;;6.10;;
55710;SDS011;41612;51.994;5.880;2023-06-19T00:50:53;9.07;;;6.18;;
55710;SDS011;41612;51.994;5.880;2023-06-19T00:53:21;14.10;;;6.60;;
55710;SDS011;41612;51.994;5.880;2023-06-19T00:55:48;6.97;;;5.40;;
55710;SDS011;41612;51.994;5.880;2023-06-19T00:58:16;9.35;;;6.90;;
55710;SDS011;41612;51.994;5.880;2023-06-19T01:00:45;8.45;;;5.30;;
55710;SDS011;41612;51.994;5.880;2023-06-19T01:03:12;7.43;;;5.60;;
55710;SDS011;41612;51.994;5.880;2023-06-19T01:05:38;9.90;;;6.57;;
55710;SDS011;41612;51.994;5.880;2023-06-19T01:08:06;10.63;;;6.40;;
55710;SDS011;41612;51.994;5.880;2023-06-19T01:10:43;7.85;;;5.38;;
55710;SDS011;41612;51.994;5.880;2023-06-19T01:13:19;6.95;;;5.57;;
55710;SDS011;41612;51.994;5.880;2023-06-19T01:15:54;9.55;;;6.20;;
55710;SDS011;41612;51.994;5.880;2023-06-19T01:18:21;9.20;;;5.38;;
55710;SDS011;41612;51.994;5.880;2023-06-19T01:20:48;9.68;;;5.88;;
55710;SDS011;41612;51.994;5.880;2023-06-19T01:23:14;9.15;;;6.10;;
55710;SDS011;41612;51.994;5.880;2023-06-19T01:25:40;8.52;;;5.60;;
55710;SDS011;41612;51.994;5.880;2023-06-19T01:28:08;6.25;;;5.20;;
55710;SDS011;41612;51.994;5.880;2023-06-19T01:30:36;9.98;;;5.03;;
55710;SDS011;41612;51.994;5.880;2023-06-19T01:33:05;7.25;;;5.40;;
55710;SDS011;41612;51.994;5.880;2023-06-19T01:35:47;6.07;;;4.72;;
55710;SDS011;41612;51.994;5.880;2023-06-19T01:38:15;5.82;;;5.22;;
55710;SDS011;41612;51.994;5.880;2023-06-19T01:40:42;8.10;;;4.97;;
55710;SDS011;41612;51.994;5.880;2023-06-19T01:43:08;7.75;;;5.70;;
55710;SDS011;41612;51.994;5.880;2023-06-19T01:45:36;6.82;;;4.93;;
55710;SDS011;41612;51.994;5.880;2023-06-19T01:48:01;6.35;;;4.93;;
55710;SDS011;41612;51.994;5.880;2023-06-19T01:50:27;6.05;;;4.53;;
55710;SDS011;41612;51.994;5.880;2023-06-19T01:52:53;7.55;;;5.35;;
55710;SDS011;41612;51.994;5.880;2023-06-19T01:55:19;9.68;;;4.88;;
55710;SDS011;41612;51.994;5.880;2023-06-19T01:57:45;5.85;;;4.90;;
55710;SDS011;41612;51.994;5.880;2023-06-19T02:00:11;8.02;;;4.93;;
55710;SDS011;41612;51.994;5.880;2023-06-19T02:02:40;5.90;;;4.47;;
55710;SDS011;41612;51.994;5.880;2023-06-19T02:05:06;6.88;;;4.90;;
55710;SDS011;41612;51.994;5.880;2023-06-19T02:07:32;8.00;;;4.47;;
55710;SDS011;41612;51.994;5.880;2023-06-19T02:09:58;5.93;;;4.53;;
55710;SDS011;41612;51.994;5.880;2023-06-19T02:12:23;7.07;;;4.15;;
55710;SDS011;41612;51.994;5.880;2023-06-19T02:14:49;6.63;;;4.63;;
55710;SDS011;41612;51.994;5.880;2023-06-19T02:17:15;6.90;;;4.32;;
55710;SDS011;41612;51.994;5.880;2023-06-19T02:19:40;5.05;;;4.07;;
55710;SDS011;41612;51.994;5.880;2023-06-19T02:22:07;6.60;;;5.00;;
55710;SDS011;41612;51.994;5.880;2023-06-19T02:24:33;6.18;;;4.90;;
55710;SDS011;41612;51.994;5.880;2023-06-19T02:26:59;6.18;;;4.38;;
55710;SDS011;41612;51.994;5.880;2023-06-19T02:29:25;5.30;;;4.25;;
55710;SDS011;41612;51.994;5.880;2023-06-19T02:31:51;7.10;;;4.47;;
55710;SDS011;41612;51.994;5.880;2023-06-19T02:34:17;6.70;;;5.28;;
55710;SDS011;41612;51.994;5.880;2023-06-19T02:36:42;7.05;;;5.28;;
55710;SDS011;41612;51.994;5.880;2023-06-19T02:39:08;6.78;;;4.45;;
55710;SDS011;41612;51.994;5.880;2023-06-19T02:41:34;6.35;;;5.00;;
55710;SDS011;41612;51.994;5.880;2023-06-19T02:44:02;6.95;;;4.47;;
55710;SDS011;41612;51.994;5.880;2023-06-19T02:46:28;5.38;;;4.30;;
55710;SDS011;41612;51.994;5.880;2023-06-19T02:48:53;5.45;;;4.18;;
55710;SDS011;41612;51.994;5.880;2023-06-19T02:51:21;6.40;;;4.45;;
55710;SDS011;41612;51.994;5.880;2023-06-19T02:53:47;5.70;;;4.50;;
55710;SDS011;41612;51.994;5.880;2023-06-19T02:56:12;6.45;;;4.68;;
55710;SDS011;41612;51.994;5.880;2023-06-19T02:58:38;5.82;;;4.15;;
55710;SDS011;41612;51.994;5.880;2023-06-19T03:01:04;5.88;;;4.38;;
55710;SDS011;41612;51.994;5.880;2023-06-19T03:03:33;5.70;;;4.68;;
55710;SDS011;41612;51.994;5.880;2023-06-19T03:06:05;5.35;;;4.20;;
55710;SDS011;41612;51.994;5.880;2023-06-19T03:08:36;5.28;;;4.20;;
55710;SDS011;41612;51.994;5.880;2023-06-19T03:11:03;6.10;;;4.38;;
55710;SDS011;41612;51.994;5.880;2023-06-19T03:13:35;5.13;;;3.90;;
55710;SDS011;41612;51.994;5.880;2023-06-19T03:16:12;4.28;;;3.47;;
55710;SDS011;41612;51.994;5.880;2023-06-19T03:18:38;4.32;;;2.95;;
55710;SDS011;41612;51.994;5.880;2023-06-19T03:21:03;4.88;;;3.30;;
55710;SDS011;41612;51.994;5.880;2023-06-19T03:23:29;8.13;;;3.40;;
55710;SDS011;41612;51.994;5.880;2023-06-19T03:25:55;5.30;;;2.80;;
55710;SDS011;41612;51.994;5.880;2023-06-19T03:28:22;5.30;;;3.00;;
55710;SDS011;41612;51.994;5.880;2023-06-19T03:30:48;4.63;;;3.28;;
55710;SDS011;41612;51.994;5.880;2023-06-19T03:33:20;4.93;;;3.20;;
55710;SDS011;41612;51.994;5.880;2023-06-19T03:35:46;4.47;;;3.33;;
55710;SDS011;41612;51.994;5.880;2023-06-19T03:38:24;5.20;;;3.40;;
55710;SDS011;41612;51.994;5.880;2023-06-19T03:40:51;4.38;;;3.22;;
55710;SDS011;41612;51.994;5.880;2023-06-19T03:43:17;5.72;;;3.03;;
55710;SDS011;41612;51.994;5.880;2023-06-19T03:45:43;4.63;;;3.40;;
55710;SDS011;41612;51.994;5.880;2023-06-19T03:48:10;4.85;;;3.20;;
55710;SDS011;41612;51.994;5.880;2023-06-19T03:50:36;4.63;;;3.15;;
55710;SDS011;41612;51.994;5.880;2023-06-19T03:53:02;4.57;;;3.15;;
55710;SDS011;41612;51.994;5.880;2023-06-19T03:55:28;4.07;;;3.13;;
55710;SDS011;41612;51.994;5.880;2023-06-19T03:57:54;4.30;;;2.88;;
55710;SDS011;41612;51.994;5.880;2023-06-19T04:00:21;5.63;;;3.47;;
55710;SDS011;41612;51.994;5.880;2023-06-19T04:02:48;4.93;;;3.10;;
55710;SDS011;41612;51.994;5.880;2023-06-19T04:05:14;5.25;;;3.08;;
55710;SDS011;41612;51.994;5.880;2023-06-19T04:07:44;4.85;;;2.92;;
55710;SDS011;41612;51.994;5.880;2023-06-19T04:10:13;4.60;;;2.90;;
55710;SDS011;41612;51.994;5.880;2023-06-19T04:12:39;4.15;;;3.03;;
55710;SDS011;41612;51.994;5.880;2023-06-19T04:15:06;4.05;;;3.28;;
55710;SDS011;41612;51.994;5.880;2023-06-19T04:17:32;4.93;;;3.05;;
55710;SDS011;41612;51.994;5.880;2023-06-19T04:19:58;5.97;;;3.08;;
55710;SDS011;41612;51.994;5.880;2023-06-19T04:22:24;5.50;;;3.05;;
55710;SDS011;41612;51.994;5.880;2023-06-19T04:24:49;6.32;;;3.45;;
55710;SDS011;41612;51.994;5.880;2023-06-19T04:27:16;7.00;;;3.60;;
55710;SDS011;41612;51.994;5.880;2023-06-19T04:29:41;3.88;;;2.28;;
55710;SDS011;41612;51.994;5.880;2023-06-19T04:32:07;4.45;;;3.53;;
55710;SDS011;41612;51.994;5.880;2023-06-19T04:34:40;3.22;;;2.40;;
55710;SDS011;41612;51.994;5.880;2023-06-19T04:37:11;4.82;;;2.78;;
55710;SDS011;41612;51.994;5.880;2023-06-19T04:39:37;5.25;;;3.63;;
55710;SDS011;41612;51.994;5.880;2023-06-19T04:42:02;4.93;;;2.92;;
55710;SDS011;41612;51.994;5.880;2023-06-19T04:44:28;6.10;;;3.20;;
55710;SDS011;41612;51.994;5.880;2023-06-19T04:46:58;4.80;;;3.35;;
55710;SDS011;41612;51.994;5.880;2023-06-19T04:49:29;6.65;;;3.22;;
55710;SDS011;41612;51.994;5.880;2023-06-19T04:51:58;7.80;;;2.92;;
55710;SDS011;41612;51.994;5.880;2023-06-19T04:54:24;8.80;;;3.60;;
55710;SDS011;41612;51.994;5.880;2023-06-19T04:56:50;6.35;;;3.83;;
55710;SDS011;41612;51.994;5.880;2023-06-19T04:59:16;5.15;;;3.50;;
55710;SDS011;41612;51.994;5.880;2023-06-19T05:01:43;6.20;;;4.65;;
55710;SDS011;41612;51.994;5.880;2023-06-19T05:04:09;4.78;;;3.30;;
55710;SDS011;41612;51.994;5.880;2023-06-19T05:06:38;5.63;;;4.40;;
55710;SDS011;41612;51.994;5.880;2023-06-19T05:09:04;8.70;;;3.90;;
55710;SDS011;41612;51.994;5.880;2023-06-19T05:11:30;4.45;;;3.05;;
55710;SDS011;41612;51.994;5.880;2023-06-19T10:01:50;13.23;;;10.90;;
55710;SDS011;41612;51.994;5.880;2023-06-19T10:04:17;13.68;;;12.27;;
55710;SDS011;41612;51.994;5.880;2023-06-19T10:06:44;15.20;;;13.60;;
55710;SDS011;41612;51.994;5.880;2023-06-19T10:09:11;13.57;;;10.18;;
55710;SDS011;41612;51.994;5.880;2023-06-19T10:11:46;7.78;;;6.63;;
55710;SDS011;41612;51.994;5.880;2023-06-19T10:14:20;15.05;;;12.07;;
55710;SDS011;41612;51.994;5.880;2023-06-19T10:16:46;13.15;;;9.13;;
55710;SDS011;41612;51.994;5.880;2023-06-19T10:19:16;15.32;;;12.80;;
55710;SDS011;41612;51.994;5.880;2023-06-19T10:21:44;9.63;;;8.55;;
55710;SDS011;41612;51.994;5.880;2023-06-19T10:24:13;11.80;;;8.63;;
55710;SDS011;41612;51.994;5.880;2023-06-19T10:26:42;10.57;;;8.20;;
55710;SDS011;41612;51.994;5.880;2023-06-19T10:29:17;9.88;;;8.88;;
55710;SDS011;41612;51.994;5.880;2023-06-19T10:31:43;11.68;;;9.10;;
55710;SDS011;41612;51.994;5.880;2023-06-19T10:34:10;9.82;;;8.68;;
55710;SDS011;41612;51.994;5.880;2023-06-19T10:36:37;10.88;;;8.10;;
55710;SDS011;41612;51.994;5.880;2023-06-19T10:39:03;8.07;;;7.10;;
55710;SDS011;41612;51.994;5.880;2023-06-19T10:41:29;16.98;;;11.95;;
55710;SDS011;41612;51.994;5.880;2023-06-19T10:46:34;7.72;;;5.70;;
55710;SDS011;41612;51.994;5.880;2023-06-19T10:49:08;12.27;;;8.80;;
55710;SDS011;41612;51.994;5.880;2023-06-19T10:51:39;9.75;;;8.40;;
55710;SDS011;41612;51.994;5.880;2023-06-19T10:54:09;13.10;;;11.10;;
55710;SDS011;41612;51.994;5.880;2023-06-19T10:56:35;15.88;;;14.02;;
55710;SDS011;41612;51.994;5.880;2023-06-19T10:59:06;17.88;;;13.75;;
55710;SDS011;41612;51.994;5.880;2023-06-19T11:01:40;16.85;;;12.38;;
55710;SDS011;41612;51.994;5.880;2023-06-19T11:04:07;8.13;;;6.20;;
55710;SDS011;41612;51.994;5.880;2023-06-19T11:06:34;13.45;;;11.85;;
55710;SDS011;41612;51.994;5.880;2023-06-19T11:09:01;12.48;;;11.20;;
55710;SDS011;41612;51.994;5.880;2023-06-19T11:14:09;9.27;;;6.20;;
55710;SDS011;41612;51.994;5.880;2023-06-19T11:16:38;13.50;;;11.43;;
55710;SDS011;41612;51.994;5.880;2023-06-19T11:19:06;10.18;;;7.93;;
55710;SDS011;41612;51.994;5.880;2023-06-19T11:21:34;7.35;;;6.18;;
55710;SDS011;41612;51.994;5.880;2023-06-19T11:24:11;6.85;;;6.03;;
55710;SDS011;41612;51.994;5.880;2023-06-19T11:26:38;7.40;;;6.60;;
55710;SDS011;41612;51.994;5.880;2023-06-19T11:29:22;6.63;;;4.85;;
55710;SDS011;41612;51.994;5.880;2023-06-19T11:31:50;11.25;;;9.38;;
55710;SDS011;41612;51.994;5.880;2023-06-19T11:34:18;6.85;;;5.68;;
55710;SDS011;41612;51.994;5.880;2023-06-19T11:36:45;7.22;;;6.40;;
55710;SDS011;41612;51.994;5.880;2023-06-19T11:39:12;10.38;;;9.18;;
55710;SDS011;41612;51.994;5.880;2023-06-19T11:41:39;12.13;;;7.55;;
55710;SDS011;41612;51.994;5.880;2023-06-19T11:44:06;6.25;;;4.90;;
55710;SDS011;41612;51.994;5.880;2023-06-19T11:46:33;8.98;;;7.43;;
55710;SDS011;41612;51.994;5.880;2023-06-19T11:51:39;8.57;;;7.28;;
55710;SDS011;41612;51.994;5.880;2023-06-19T11:54:06;8.23;;;6.45;;
55710;SDS011;41612;51.994;5.880;2023-06-19T11:56:34;11.18;;;7.35;;
55710;SDS011;41612;51.994;5.880;2023-06-19T11:59:01;11.32;;;7.45;;
55710;SDS011;41612;51.994;5.880;2023-06-19T12:01:31;17.05;;;8.07;;
55710;SDS011;41612;51.994;5.880;2023-06-19T12:03:58;15.30;;;7.85;;
55710;SDS011;41612;51.994;5.880;2023-06-19T12:06:24;9.50;;;6.82;;
55710;SDS011;41612;51.994;5.880;2023-06-19T12:08:50;12.90;;;10.40;;
55710;SDS011;41612;51.994;5.880;2023-06-19T12:11:16;7.82;;;5.25;;
55710;SDS011;41612;51.994;5.880;2023-06-19T12:13:42;11.52;;;8.57;;
55710;SDS011;41612;51.994;5.880;2023-06-19T12:16:09;13.57;;;11.38;;
55710;SDS011;41612;51.994;5.880;2023-06-19T12:18:36;10.68;;;6.75;;
55710;SDS011;41612;51.994;5.880;2023-06-19T12:21:02;14.02;;;10.57;;
55710;SDS011;41612;51.994;5.880;2023-06-19T12:23:28;10.07;;;7.97;;
55710;SDS011;41612;51.994;5.880;2023-06-19T12:25:54;13.10;;;8.00;;
55710;SDS011;41612;51.994;5.880;2023-06-19T12:28:20;8.63;;;6.85;;
55710;SDS011;41612;51.994;5.880;2023-06-19T12:30:46;8.77;;;6.47;;
55710;SDS011;41612;51.994;5.880;2023-06-19T12:33:20;9.60;;;7.65;;
55710;SDS011;41612;51.994;5.880;2023-06-19T12:35:46;5.97;;;4.50;;
55710;SDS011;41612;51.994;5.880;2023-06-19T12:38:12;7.22;;;5.97;;
55710;SDS011;41612;51.994;5.880;2023-06-19T12:40:38;7.15;;;5.85;;
55710;SDS011;41612;51.994;5.880;2023-06-19T12:43:05;6.43;;;4.68;;
55710;SDS011;41612;51.994;5.880;2023-06-19T12:45:31;6.88;;;4.68;;
55710;SDS011;41612;51.994;5.880;2023-06-19T12:47:57;9.55;;;5.57;;
55710;SDS011;41612;51.994;5.880;2023-06-19T12:50:23;8.38;;;4.90;;
55710;SDS011;41612;51.994;5.880;2023-06-19T12:52:49;8.52;;;5.72;;
55710;SDS011;41612;51.994;5.880;2023-06-19T12:55:16;6.75;;;5.07;;
55710;SDS011;41612;51.994;5.880;2023-06-19T12:57:48;7.05;;;5.53;;
55710;SDS011;41612;51.994;5.880;2023-06-19T13:00:14;7.22;;;4.03;;
55710;SDS011;41612;51.994;5.880;2023-06-19T13:02:40;7.50;;;4.03;;
55710;SDS011;41612;51.994;5.880;2023-06-19T13:05:08;12.43;;;5.00;;
55710;SDS011;41612;51.994;5.880;2023-06-19T13:07:38;11.57;;;8.02;;
55710;SDS011;41612;51.994;5.880;2023-06-19T13:10:04;7.45;;;5.15;;
55710;SDS011;41612;51.994;5.880;2023-06-19T13:12:31;7.93;;;6.35;;
55710;SDS011;41612;51.994;5.880;2023-06-19T13:14:57;6.68;;;5.32;;
55710;SDS011;41612;51.994;5.880;2023-06-19T13:17:24;11.25;;;5.53;;
55710;SDS011;41612;51.994;5.880;2023-06-19T13:19:49;7.47;;;3.88;;
55710;SDS011;41612;51.994;5.880;2023-06-19T13:22:15;5.18;;;3.78;;
55710;SDS011;41612;51.994;5.880;2023-06-19T13:24:41;8.75;;;6.38;;
55710;SDS011;41612;51.994;5.880;2023-06-19T13:27:06;4.85;;;3.47;;
55710;SDS011;41612;51.994;5.880;2023-06-19T13:29:32;6.45;;;4.63;;
55710;SDS011;41612;51.994;5.880;2023-06-19T13:31:58;6.43;;;5.15;;
55710;SDS011;41612;51.994;5.880;2023-06-19T13:34:25;7.80;;;6.57;;
55710;SDS011;41612;51.994;5.880;2023-06-19T13:36:51;9.82;;;6.55;;
55710;SDS011;41612;51.994;5.880;2023-06-19T13:39:17;9.20;;;6.10;;
55710;SDS011;41612;51.994;5.880;2023-06-19T13:41:46;7.30;;;5.70;;
55710;SDS011;41612;51.994;5.880;2023-06-19T13:44:12;10.27;;;6.57;;
55710;SDS011;41612;51.994;5.880;2023-06-19T13:46:38;10.60;;;6.82;;
55710;SDS011;41612;51.994;5.880;2023-06-19T13:49:04;8.32;;;5.82;;
55710;SDS011;41612;51.994;5.880;2023-06-19T13:51:29;6.95;;;5.38;;
55710;SDS011;41612;51.994;5.880;2023-06-19T13:53:55;7.43;;;5.53;;
55710;SDS011;41612;51.994;5.880;2023-06-19T13:56:21;7.57;;;5.13;;
55710;SDS011;41612;51.994;5.880;2023-06-19T13:58:48;3.42;;;2.65;;
55710;SDS011;41612;51.994;5.880;2023-06-19T14:01:25;6.30;;;5.10;;
55710;SDS011;41612;51.994;5.880;2023-06-19T14:03:51;10.23;;;5.55;;
55710;SDS011;41612;51.994;5.880;2023-06-19T14:06:17;6.50;;;4.90;;
55710;SDS011;41612;51.994;5.880;2023-06-19T14:08:43;5.85;;;3.95;;
55710;SDS011;41612;51.994;5.880;2023-06-19T14:11:08;4.38;;;3.33;;
55710;SDS011;41612;51.994;5.880;2023-06-19T14:13:34;8.05;;;6.15;;
55710;SDS011;41612;51.994;5.880;2023-06-19T14:16:01;4.35;;;3.42;;
55710;SDS011;41612;51.994;5.880;2023-06-19T14:18:27;6.18;;;3.75;;
55710;SDS011;41612;51.994;5.880;2023-06-19T14:20:52;4.60;;;3.30;;
55710;SDS011;41612;51.994;5.880;2023-06-19T14:23:18;5.22;;;2.88;;
55710;SDS011;41612;51.994;5.880;2023-06-19T14:25:44;5.97;;;3.75;;
55710;SDS011;41612;51.994;5.880;2023-06-19T14:28:09;8.18;;;4.78;;
55710;SDS011;41612;51.994;5.880;2023-06-19T14:30:35;5.25;;;3.75;;
55710;SDS011;41612;51.994;5.880;2023-06-19T14:33:01;4.70;;;2.65;;
55710;SDS011;41612;51.994;5.880;2023-06-19T14:35:27;6.32;;;4.93;;
55710;SDS011;41612;51.994;5.880;2023-06-19T14:37:52;3.00;;;2.45;;
55710;SDS011;41612;51.994;5.880;2023-06-19T14:40:18;4.65;;;4.03;;
55710;SDS011;41612;51.994;5.880;2023-06-19T14:42:44;4.18;;;2.75;;
55710;SDS011;41612;51.994;5.880;2023-06-19T14:45:09;3.20;;;2.65;;
55710;SDS011;41612;51.994;5.880;2023-06-19T14:47:35;3.47;;;2.95;;
55710;SDS011;41612;51.994;5.880;2023-06-19T14:50:01;3.53;;;2.50;;
55710;SDS011;41612;51.994;5.880;2023-06-19T14:52:27;8.30;;;5.43;;
55710;SDS011;41612;51.994;5.880;2023-06-19T14:54:53;7.75;;;5.32;;
55710;SDS011;41612;51.994;5.880;2023-06-19T14:57:19;9.85;;;5.18;;
55710;SDS011;41612;51.994;5.880;2023-06-19T14:59:45;7.95;;;6.30;;
55710;SDS011;41612;51.994;5.880;2023-06-19T15:02:10;5.90;;;4.53;;
55710;SDS011;41612;51.994;5.880;2023-06-19T15:04:36;3.15;;;2.63;;
55710;SDS011;41612;51.994;5.880;2023-06-19T15:07:03;5.63;;;3.33;;
55710;SDS011;41612;51.994;5.880;2023-06-19T15:09:29;3.50;;;2.60;;
55710;SDS011;41612;51.994;5.880;2023-06-19T15:11:55;3.95;;;3.42;;
55710;SDS011;41612;51.994;5.880;2023-06-19T15:14:20;3.72;;;3.05;;
55710;SDS011;41612;51.994;5.880;2023-06-19T15:16:46;4.05;;;3.53;;
55710;SDS011;41612;51.994;5.880;2023-06-19T15:19:12;3.75;;;3.35;;
55710;SDS011;41612;51.994;5.880;2023-06-19T15:21:38;6.80;;;5.50;;
55710;SDS011;41612;51.994;5.880;2023-06-19T15:24:03;7.93;;;5.22;;
55710;SDS011;41612;51.994;5.880;2023-06-19T15:26:29;7.70;;;4.18;;
55710;SDS011;41612;51.994;5.880;2023-06-19T15:28:55;8.27;;;6.22;;
55710;SDS011;41612;51.994;5.880;2023-06-19T15:31:21;6.18;;;4.55;;
55710;SDS011;41612;51.994;5.880;2023-06-19T15:33:48;5.88;;;5.28;;
55710;SDS011;41612;51.994;5.880;2023-06-19T15:36:14;6.47;;;4.43;;
55710;SDS011;41612;51.994;5.880;2023-06-19T15:38:41;6.85;;;4.28;;
55710;SDS011;41612;51.994;5.880;2023-06-19T15:41:06;8.32;;;4.63;;
55710;SDS011;41612;51.994;5.880;2023-06-19T15:43:32;10.07;;;6.10;;
55710;SDS011;41612;51.994;5.880;2023-06-19T15:45:58;5.93;;;3.72;;
55710;SDS011;41612;51.994;5.880;2023-06-19T15:48:24;6.72;;;4.38;;
55710;SDS011;41612;51.994;5.880;2023-06-19T15:50:50;6.72;;;4.72;;
55710;SDS011;41612;51.994;5.880;2023-06-19T15:53:15;6.93;;;5.00;;
55710;SDS011;41612;51.994;5.880;2023-06-19T15:55:41;5.00;;;4.00;;
55710;SDS011;41612;51.994;5.880;2023-06-19T15:58:07;5.22;;;4.70;;
55710;SDS011;41612;51.994;5.880;2023-06-19T16:00:33;11.52;;;4.95;;
55710;SDS011;41612;51.994;5.880;2023-06-19T16:02:59;8.63;;;4.68;;
55710;SDS011;41612;51.994;5.880;2023-06-19T16:05:25;6.03;;;4.00;;
55710;SDS011;41612;51.994;5.880;2023-06-19T16:07:51;5.45;;;4.20;;
55710;SDS011;41612;51.994;5.880;2023-06-19T16:10:17;9.30;;;4.40;;
55710;SDS011;41612;51.994;5.880;2023-06-19T16:12:43;10.68;;;5.47;;
55710;SDS011;41612;51.994;5.880;2023-06-19T16:15:09;7.25;;;4.97;;
55710;SDS011;41612;51.994;5.880;2023-06-19T16:17:38;6.28;;;4.57;;
55710;SDS011;41612;51.994;5.880;2023-06-19T16:20:05;5.18;;;4.68;;
55710;SDS011;41612;51.994;5.880;2023-06-19T16:22:32;10.35;;;4.75;;
55710;SDS011;41612;51.994;5.880;2023-06-19T16:24:59;5.97;;;4.95;;
55710;SDS011;41612;51.994;5.880;2023-06-19T16:27:25;7.85;;;4.38;;
55710;SDS011;41612;51.994;5.880;2023-06-19T16:29:50;6.53;;;4.57;;
55710;SDS011;41612;51.994;5.880;2023-06-19T16:32:16;7.22;;;5.20;;
55710;SDS011;41612;51.994;5.880;2023-06-19T16:34:42;9.65;;;7.18;;
55710;SDS011;41612;51.994;5.880;2023-06-19T16:37:11;5.95;;;5.05;;
55710;SDS011;41612;51.994;5.880;2023-06-19T16:39:36;7.03;;;5.00;;
55710;SDS011;41612;51.994;5.880;2023-06-19T16:42:02;6.72;;;4.72;;
55710;SDS011;41612;51.994;5.880;2023-06-19T16:44:28;7.07;;;5.00;;
55710;SDS011;41612;51.994;5.880;2023-06-19T16:46:53;8.18;;;4.90;;
55710;SDS011;41612;51.994;5.880;2023-06-19T16:49:19;8.80;;;5.22;;
55710;SDS011;41612;51.994;5.880;2023-06-19T16:51:47;6.00;;;4.50;;
55710;SDS011;41612;51.994;5.880;2023-06-19T16:54:13;7.75;;;5.35;;
55710;SDS011;41612;51.994;5.880;2023-06-19T16:56:39;7.88;;;4.38;;
55710;SDS011;41612;51.994;5.880;2023-06-19T16:59:04;6.85;;;5.53;;
55710;SDS011;41612;51.994;5.880;2023-06-19T17:01:35;6.85;;;6.15;;
55710;SDS011;41612;51.994;5.880;2023-06-19T17:04:01;7.60;;;4.90;;
55710;SDS011;41612;51.994;5.880;2023-06-19T17:06:33;10.85;;;7.05;;
55710;SDS011;41612;51.994;5.880;2023-06-19T17:09:06;10.60;;;7.07;;
55710;SDS011;41612;51.994;5.880;2023-06-19T17:15:32;5.65;;;4.53;;
55710;SDS011;41612;51.994;5.880;2023-06-19T17:26:53;6.25;;;4.88;;
55710;SDS011;41612;51.994;5.880;2023-06-19T17:36:30;5.95;;;4.82;;
55710;SDS011;41612;51.994;5.880;2023-06-19T17:40:03;7.30;;;4.53;;
55710;SDS011;41612;51.994;5.880;2023-06-19T17:42:51;4.90;;;4.32;;
55710;SDS011;41612;51.994;5.880;2023-06-19T17:45:36;5.97;;;4.45;;
55710;SDS011;41612;51.994;5.880;2023-06-19T17:48:56;5.93;;;4.72;;
55710;SDS011;41612;51.994;5.880;2023-06-19T17:51:21;6.80;;;4.18;;
55710;SDS011;41612;51.994;5.880;2023-06-19T17:53:48;5.05;;;4.53;;
55710;SDS011;41612;51.994;5.880;2023-06-19T17:56:14;5.40;;;4.57;;
55710;SDS011;41612;51.994;5.880;2023-06-19T17:58:41;5.90;;;4.97;;
55710;SDS011;41612;51.994;5.880;2023-06-19T18:01:07;6.22;;;4.70;;
55710;SDS011;41612;51.994;5.880;2023-06-19T18:03:33;4.88;;;4.35;;
55710;SDS011;41612;51.994;5.880;2023-06-19T18:05:58;5.32;;;4.82;;
55710;SDS011;41612;51.994;5.880;2023-06-19T18:08:24;5.78;;;4.57;;
55710;SDS011;41612;51.994;5.880;2023-06-19T18:10:50;4.70;;;3.72;;
55710;SDS011;41612;51.994;5.880;2023-06-19T18:13:15;5.32;;;4.75;;
55710;SDS011;41612;51.994;5.880;2023-06-19T18:15:41;5.47;;;4.88;;
55710;SDS011;41612;51.994;5.880;2023-06-19T18:18:07;5.95;;;4.78;;
55710;SDS011;41612;51.994;5.880;2023-06-19T18:20:32;6.13;;;5.18;;
55710;SDS011;41612;51.994;5.880;2023-06-19T18:22:58;5.32;;;4.63;;
55710;SDS011;41612;51.994;5.880;2023-06-19T18:25:24;7.00;;;4.75;;
55710;SDS011;41612;51.994;5.880;2023-06-19T18:27:49;5.20;;;4.50;;
55710;SDS011;41612;51.994;5.880;2023-06-19T18:30:15;5.10;;;4.60;;
55710;SDS011;41612;51.994;5.880;2023-06-19T18:32:41;6.70;;;4.97;;
55710;SDS011;41612;51.994;5.880;2023-06-19T18:35:09;5.90;;;4.82;;
55710;SDS011;41612;51.994;5.880;2023-06-19T18:37:35;6.22;;;5.07;;
55710;SDS011;41612;51.994;5.880;2023-06-19T18:40:07;5.60;;;4.55;;
55710;SDS011;41612;51.994;5.880;2023-06-19T21:04:40;5.85;;;4.88;;
55710;SDS011;41612;51.994;5.880;2023-06-19T21:07:06;5.15;;;4.60;;
55710;SDS011;41612;51.994;5.880;2023-06-19T21:09:32;5.47;;;4.47;;
55710;SDS011;41612;51.994;5.880;2023-06-19T21:11:58;5.25;;;4.72;;
55710;SDS011;41612;51.994;5.880;2023-06-19T21:14:23;7.25;;;4.78;;
55710;SDS011;41612;51.994;5.880;2023-06-19T21:16:49;5.57;;;4.80;;
55710;SDS011;41612;51.994;5.880;2023-06-19T21:19:15;5.97;;;4.95;;
55710;SDS011;41612;51.994;5.880;2023-06-19T21:21:40;6.20;;;4.95;;
55710;SDS011;41612;51.994;5.880;2023-06-19T21:24:06;7.05;;;5.00;;
55710;SDS011;41612;51.994;5.880;2023-06-19T21:26:32;5.38;;;4.43;;
55710;SDS011;41612;51.994;5.880;2023-06-19T21:28:58;6.70;;;5.43;;
55710;SDS011;41612;51.994;5.880;2023-06-19T21:31:23;6.05;;;4.63;;
55710;SDS011;41612;51.994;5.880;2023-06-19T21:33:49;5.75;;;4.90;;
55710;SDS011;41612;51.994;5.880;2023-06-19T21:36:15;6.50;;;4.90;;
55710;SDS011;41612;51.994;5.880;2023-06-19T21:38:41;6.43;;;4.93;;
55710;SDS011;41612;51.994;5.880;2023-06-19T21:41:06;6.85;;;6.05;;
55710;SDS011;41612;51.994;5.880;2023-06-19T21:43:32;7.15;;;4.88;;
55710;SDS011;41612;51.994;5.880;2023-06-19T21:45:57;6.30;;;4.82;;
55710;SDS011;41612;51.994;5.880;2023-06-19T21:48:26;6.82;;;4.75;;
55710;SDS011;41612;51.994;5.880;2023-06-19T21:50:53;6.18;;;4.82;;
55710;SDS011;41612;51.994;5.880;2023-06-19T21:53:19;5.55;;;4.85;;
55710;SDS011;41612;51.994;5.880;2023-06-19T21:55:45;7.63;;;4.68;;
55710;SDS011;41612;51.994;5.880;2023-06-19T21:58:11;5.68;;;4.70;;
55710;SDS011;41612;51.994;5.880;2023-06-19T22:00:37;8.15;;;4.93;;
55710;SDS011;41612;51.994;5.880;2023-06-19T22:03:03;6.93;;;4.95;;
55710;SDS011;41612;51.994;5.880;2023-06-19T22:05:29;6.30;;;4.43;;
55710;SDS011;41612;51.994;5.880;2023-06-19T22:07:54;5.57;;;4.57;;
55710;SDS011;41612;51.994;5.880;2023-06-19T22:10:20;6.28;;;4.88;;
55710;SDS011;41612;51.994;5.880;2023-06-19T22:12:46;8.40;;;5.35;;
55710;SDS011;41612;51.994;5.880;2023-06-19T22:15:13;6.35;;;4.75;;
55710;SDS011;41612;51.994;5.880;2023-06-19T22:17:39;6.00;;;4.30;;
55710;SDS011;41612;51.994;5.880;2023-06-19T22:20:11;5.68;;;4.63;;
55710;SDS011;41612;51.994;5.880;2023-06-19T22:22:42;5.80;;;4.43;;
55710;SDS011;41612;51.994;5.880;2023-06-19T22:25:08;7.60;;;4.38;;